sensor_id;sensor_type;location;lat;lon;timestamp;pressure;altitude;pressure_sealevel;temperature;humidity
10668;BME280;5382;42.136;24.796;2022-07-06T00:02:19;99727.63;;;24.44;74.16
10668;BME280;5382;42.136;24.796;2022-07-06T00:04:46;99719.69;;;24.23;74.92
10668;BME280;5382;42.136;24.796;2022-07-06T00:07:14;99736.75;;;24.16;76.25
10668;BME280;5382;42.136;24.796;2022-07-06T00:09:41;99730.88;;;24.06;76.70
10668;BME280;5382;42.136;24.796;2022-07-06T00:12:09;99723.81;;;24.12;78.46
10668;BME280;5382;42.136;24.796;2022-07-06T00:14:36;99724.88;;;24.17;79.58
10668;BME280;5382;42.136;24.796;2022-07-06T00:17:03;99719.72;;;24.29;80.35
10668;BME280;5382;42.136;24.796;2022-07-06T00:19:30;99715.13;;;24.36;81.88
10668;BME280;5382;42.136;24.796;2022-07-06T00:21:57;99701.41;;;24.25;82.22
10668;BME280;5382;42.136;24.796;2022-07-06T00:24:25;99714.75;;;24.40;81.78
10668;BME280;5382;42.136;24.796;2022-07-06T00:26:52;99716.38;;;24.27;83.66
10668;BME280;5382;42.136;24.796;2022-07-06T00:29:19;99720.50;;;24.23;84.72
10668;BME280;5382;42.136;24.796;2022-07-06T00:31:46;99715.69;;;24.05;86.47
10668;BME280;5382;42.136;24.796;2022-07-06T00:34:13;99706.31;;;24.01;87.06
10668;BME280;5382;42.136;24.796;2022-07-06T00:36:40;99699.38;;;23.79;88.38
10668;BME280;5382;42.136;24.796;2022-07-06T00:39:07;99694.28;;;23.69;89.17
10668;BME280;5382;42.136;24.796;2022-07-06T00:41:36;99685.31;;;23.62;89.32
10668;BME280;5382;42.136;24.796;2022-07-06T00:44:07;99673.44;;;23.56;89.18
10668;BME280;5382;42.136;24.796;2022-07-06T00:46:36;99689.53;;;23.71;89.43
10668;BME280;5382;42.136;24.796;2022-07-06T00:49:03;99654.13;;;23.52;89.44
10668;BME280;5382;42.136;24.796;2022-07-06T00:51:31;99679.78;;;23.70;89.71
10668;BME280;5382;42.136;24.796;2022-07-06T00:53:59;99681.09;;;23.81;89.19
10668;BME280;5382;42.136;24.796;2022-07-06T00:56:29;99682.34;;;23.85;89.03
10668;BME280;5382;42.136;24.796;2022-07-06T00:59:00;99671.75;;;23.83;89.02
10668;BME280;5382;42.136;24.796;2022-07-06T01:01:27;99662.59;;;23.78;89.27
10668;BME280;5382;42.136;24.796;2022-07-06T01:03:54;99666.78;;;23.93;88.18
10668;BME280;5382;42.136;24.796;2022-07-06T01:06:21;99653.66;;;23.90;88.36
10668;BME280;5382;42.136;24.796;2022-07-06T01:08:48;99646.78;;;23.88;88.68
10668;BME280;5382;42.136;24.796;2022-07-06T01:11:16;99644.53;;;23.91;87.82
10668;BME280;5382;42.136;24.796;2022-07-06T01:13:44;99641.22;;;23.96;87.77
10668;BME280;5382;42.136;24.796;2022-07-06T01:16:13;99631.47;;;24.02;87.37
10668;BME280;5382;42.136;24.796;2022-07-06T01:18:42;99626.47;;;24.05;86.80
10668;BME280;5382;42.136;24.796;2022-07-06T01:21:12;99621.09;;;24.12;86.19
10668;BME280;5382;42.136;24.796;2022-07-06T01:23:43;99620.88;;;24.13;86.04
10668;BME280;5382;42.136;24.796;2022-07-06T01:26:12;99616.31;;;24.21;85.49
10668;BME280;5382;42.136;24.796;2022-07-06T01:28:39;99619.00;;;24.21;85.06
10668;BME280;5382;42.136;24.796;2022-07-06T01:31:14;99605.06;;;24.24;84.94
10668;BME280;5382;42.136;24.796;2022-07-06T01:33:41;99597.00;;;24.37;83.74
10668;BME280;5382;42.136;24.796;2022-07-06T01:36:10;99594.69;;;24.34;83.24
10668;BME280;5382;42.136;24.796;2022-07-06T01:38:44;99560.78;;;24.25;84.08
10668;BME280;5382;42.136;24.796;2022-07-06T01:41:11;99596.00;;;24.45;85.46
10668;BME280;5382;42.136;24.796;2022-07-06T01:43:38;99591.81;;;24.49;84.99
10668;BME280;5382;42.136;24.796;2022-07-06T01:46:05;99579.31;;;24.41;83.45
10668;BME280;5382;42.136;24.796;2022-07-06T01:48:32;99585.16;;;24.51;82.34
10668;BME280;5382;42.136;24.796;2022-07-06T01:50:59;99576.81;;;24.40;85.65
10668;BME280;5382;42.136;24.796;2022-07-06T01:53:27;99575.13;;;24.38;85.60
10668;BME280;5382;42.136;24.796;2022-07-06T01:55:54;99565.16;;;24.32;87.99
10668;BME280;5382;42.136;24.796;2022-07-06T01:58:21;99568.28;;;24.36;88.25
10668;BME280;5382;42.136;24.796;2022-07-06T02:00:49;99559.53;;;24.27;87.71
10668;BME280;5382;42.136;24.796;2022-07-06T02:03:15;99558.06;;;24.31;88.12
10668;BME280;5382;42.136;24.796;2022-07-06T02:05:42;99565.78;;;24.28;88.15
10668;BME280;5382;42.136;24.796;2022-07-06T02:08:09;99558.91;;;24.25;88.86
10668;BME280;5382;42.136;24.796;2022-07-06T02:10:37;99548.09;;;24.12;90.52
10668;BME280;5382;42.136;24.796;2022-07-06T02:13:04;99564.13;;;24.20;91.48
10668;BME280;5382;42.136;24.796;2022-07-06T02:15:31;99553.50;;;24.05;91.25
10668;BME280;5382;42.136;24.796;2022-07-06T02:17:58;99552.88;;;23.97;91.71
10668;BME280;5382;42.136;24.796;2022-07-06T02:20:25;99556.59;;;23.95;92.26
10668;BME280;5382;42.136;24.796;2022-07-06T02:22:52;99552.22;;;23.88;93.03
10668;BME280;5382;42.136;24.796;2022-07-06T02:25:18;99553.25;;;23.87;93.01
10668;BME280;5382;42.136;24.796;2022-07-06T02:27:47;99538.91;;;23.80;92.89
10668;BME280;5382;42.136;24.796;2022-07-06T02:30:13;99538.72;;;23.81;91.96
10668;BME280;5382;42.136;24.796;2022-07-06T02:32:40;99548.66;;;23.74;93.73
10668;BME280;5382;42.136;24.796;2022-07-06T02:35:07;99557.81;;;23.73;95.38
10668;BME280;5382;42.136;24.796;2022-07-06T02:37:34;99560.88;;;23.63;94.05
10668;BME280;5382;42.136;24.796;2022-07-06T02:40:01;99563.16;;;23.66;95.47
10668;BME280;5382;42.136;24.796;2022-07-06T02:42:28;99570.13;;;23.34;97.87
10668;BME280;5382;42.136;24.796;2022-07-06T02:44:56;99574.13;;;23.03;100.00
10668;BME280;5382;42.136;24.796;2022-07-06T02:47:23;99574.25;;;22.95;100.00
10668;BME280;5382;42.136;24.796;2022-07-06T02:49:51;99569.56;;;22.76;100.00
10668;BME280;5382;42.136;24.796;2022-07-06T02:52:18;99576.84;;;22.82;100.00
10668;BME280;5382;42.136;24.796;2022-07-06T02:54:45;99550.41;;;22.64;100.00
10668;BME280;5382;42.136;24.796;2022-07-06T02:57:14;99574.44;;;22.94;100.00
10668;BME280;5382;42.136;24.796;2022-07-06T02:59:40;99584.47;;;23.00;100.00
10668;BME280;5382;42.136;24.796;2022-07-06T03:02:09;99579.75;;;23.08;100.00
10668;BME280;5382;42.136;24.796;2022-07-06T03:04:36;99579.75;;;23.08;99.88
10668;BME280;5382;42.136;24.796;2022-07-06T03:07:03;99592.03;;;23.11;100.00
10668;BME280;5382;42.136;24.796;2022-07-06T03:09:30;99594.16;;;23.22;99.73
10668;BME280;5382;42.136;24.796;2022-07-06T03:11:56;99580.00;;;23.20;99.48
10668;BME280;5382;42.136;24.796;2022-07-06T03:14:24;99595.38;;;23.13;98.28
10668;BME280;5382;42.136;24.796;2022-07-06T03:16:51;99594.72;;;23.11;97.85
10668;BME280;5382;42.136;24.796;2022-07-06T03:19:20;99599.47;;;23.09;100.00
10668;BME280;5382;42.136;24.796;2022-07-06T03:21:46;99595.78;;;23.17;99.37
10668;BME280;5382;42.136;24.796;2022-07-06T03:24:13;99602.00;;;23.11;98.79
10668;BME280;5382;42.136;24.796;2022-07-06T03:26:40;99585.56;;;23.05;98.15
10668;BME280;5382;42.136;24.796;2022-07-06T03:29:07;99610.19;;;23.30;97.73
10668;BME280;5382;42.136;24.796;2022-07-06T03:31:34;99602.31;;;23.36;100.00
10668;BME280;5382;42.136;24.796;2022-07-06T03:34:01;99575.91;;;23.31;100.00
10668;BME280;5382;42.136;24.796;2022-07-06T03:36:29;99581.97;;;23.40;100.00
10668;BME280;5382;42.136;24.796;2022-07-06T03:38:56;99603.22;;;23.56;100.00
10668;BME280;5382;42.136;24.796;2022-07-06T03:41:23;99617.31;;;23.45;99.19
10668;BME280;5382;42.136;24.796;2022-07-06T03:43:50;99611.91;;;23.45;98.54
10668;BME280;5382;42.136;24.796;2022-07-06T03:46:35;99615.47;;;23.52;95.08
10668;BME280;5382;42.136;24.796;2022-07-06T03:49:02;99616.31;;;23.59;92.99
10668;BME280;5382;42.136;24.796;2022-07-06T03:51:30;99616.78;;;23.63;94.13
10668;BME280;5382;42.136;24.796;2022-07-06T03:53:57;99616.84;;;23.76;94.70
10668;BME280;5382;42.136;24.796;2022-07-06T03:56:24;99606.66;;;23.85;95.22
10668;BME280;5382;42.136;24.796;2022-07-06T03:58:54;99619.16;;;23.92;92.08
10668;BME280;5382;42.136;24.796;2022-07-06T04:01:21;99608.16;;;23.94;91.99
10668;BME280;5382;42.136;24.796;2022-07-06T04:03:48;99607.72;;;23.90;91.38
10668;BME280;5382;42.136;24.796;2022-07-06T04:06:15;99619.81;;;23.94;90.40
10668;BME280;5382;42.136;24.796;2022-07-06T04:08:43;99622.88;;;23.85;90.76
10668;BME280;5382;42.136;24.796;2022-07-06T04:11:10;99617.06;;;23.88;91.18
10668;BME280;5382;42.136;24.796;2022-07-06T04:13:37;99610.88;;;23.94;91.46
10668;BME280;5382;42.136;24.796;2022-07-06T04:16:04;99617.94;;;24.02;93.46
10668;BME280;5382;42.136;24.796;2022-07-06T04:18:31;99622.75;;;24.13;93.94
10668;BME280;5382;42.136;24.796;2022-07-06T04:20:58;99621.09;;;24.19;95.38
10668;BME280;5382;42.136;24.796;2022-07-06T04:23:26;99616.09;;;24.15;96.48
10668;BME280;5382;42.136;24.796;2022-07-06T04:25:54;99623.78;;;24.12;100.00
10668;BME280;5382;42.136;24.796;2022-07-06T04:28:21;99618.59;;;24.24;100.00
10668;BME280;5382;42.136;24.796;2022-07-06T04:30:48;99619.03;;;24.27;100.00
10668;BME280;5382;42.136;24.796;2022-07-06T04:33:14;99594.06;;;24.19;100.00
10668;BME280;5382;42.136;24.796;2022-07-06T04:35:41;99617.41;;;24.46;100.00
10668;BME280;5382;42.136;24.796;2022-07-06T04:38:08;99614.50;;;24.54;100.00
10668;BME280;5382;42.136;24.796;2022-07-06T04:40:35;99630.72;;;24.68;100.00
10668;BME280;5382;42.136;24.796;2022-07-06T04:43:03;99617.81;;;24.83;100.00
10668;BME280;5382;42.136;24.796;2022-07-06T04:45:30;99614.47;;;24.94;100.00
10668;BME280;5382;42.136;24.796;2022-07-06T04:47:57;99614.25;;;25.02;100.00
10668;BME280;5382;42.136;24.796;2022-07-06T04:50:24;99618.66;;;24.77;100.00
10668;BME280;5382;42.136;24.796;2022-07-06T04:52:51;99615.75;;;24.72;100.00
10668;BME280;5382;42.136;24.796;2022-07-06T04:55:18;99618.63;;;24.70;100.00
10668;BME280;5382;42.136;24.796;2022-07-06T04:57:45;99608.69;;;24.71;100.00
10668;BME280;5382;42.136;24.796;2022-07-06T05:00:14;99620.72;;;24.88;100.00
10668;BME280;5382;42.136;24.796;2022-07-06T05:02:41;99631.13;;;24.91;100.00
10668;BME280;5382;42.136;24.796;2022-07-06T05:05:09;99603.88;;;24.73;100.00
10668;BME280;5382;42.136;24.796;2022-07-06T05:07:36;99626.53;;;24.85;100.00
10668;BME280;5382;42.136;24.796;2022-07-06T05:10:06;99618.81;;;24.95;100.00
10668;BME280;5382;42.136;24.796;2022-07-06T05:12:33;99619.84;;;25.08;100.00
10668;BME280;5382;42.136;24.796;2022-07-06T05:15:00;99632.75;;;25.06;100.00
10668;BME280;5382;42.136;24.796;2022-07-06T05:17:29;99616.50;;;25.12;100.00
10668;BME280;5382;42.136;24.796;2022-07-06T05:19:56;99619.66;;;25.02;100.00
10668;BME280;5382;42.136;24.796;2022-07-06T05:22:23;99621.50;;;25.09;100.00
10668;BME280;5382;42.136;24.796;2022-07-06T05:24:50;99641.50;;;25.01;100.00
10668;BME280;5382;42.136;24.796;2022-07-06T05:27:17;99640.72;;;24.87;100.00
10668;BME280;5382;42.136;24.796;2022-07-06T05:29:43;99653.81;;;24.97;100.00
10668;BME280;5382;42.136;24.796;2022-07-06T05:32:10;99647.38;;;24.91;100.00
10668;BME280;5382;42.136;24.796;2022-07-06T05:34:38;99647.97;;;24.93;100.00
10668;BME280;5382;42.136;24.796;2022-07-06T05:37:05;99647.59;;;24.96;100.00
10668;BME280;5382;42.136;24.796;2022-07-06T05:39:34;99653.19;;;25.01;100.00
10668;BME280;5382;42.136;24.796;2022-07-06T05:42:01;99661.94;;;24.97;100.00
10668;BME280;5382;42.136;24.796;2022-07-06T05:44:28;99659.03;;;24.85;100.00
10668;BME280;5382;42.136;24.796;2022-07-06T05:46:55;99658.41;;;24.76;100.00
10668;BME280;5382;42.136;24.796;2022-07-06T05:49:43;99666.94;;;24.80;100.00
10668;BME280;5382;42.136;24.796;2022-07-06T05:52:27;99667.97;;;24.92;100.00
10668;BME280;5382;42.136;24.796;2022-07-06T05:54:54;99661.09;;;25.03;100.00
10668;BME280;5382;42.136;24.796;2022-07-06T05:57:21;99671.53;;;24.99;100.00
10668;BME280;5382;42.136;24.796;2022-07-06T05:59:47;99676.72;;;25.08;100.00
10668;BME280;5382;42.136;24.796;2022-07-06T06:02:14;99694.59;;;25.09;100.00
10668;BME280;5382;42.136;24.796;2022-07-06T06:04:43;99675.88;;;25.07;100.00
10668;BME280;5382;42.136;24.796;2022-07-06T06:07:10;99662.75;;;24.91;100.00
10668;BME280;5382;42.136;24.796;2022-07-06T06:09:36;99682.31;;;25.13;100.00
10668;BME280;5382;42.136;24.796;2022-07-06T06:12:04;99683.19;;;25.20;100.00
10668;BME280;5382;42.136;24.796;2022-07-06T06:14:31;99687.75;;;25.19;100.00
10668;BME280;5382;42.136;24.796;2022-07-06T06:16:57;99691.09;;;25.28;100.00
10668;BME280;5382;42.136;24.796;2022-07-06T06:19:25;99674.19;;;25.13;100.00
10668;BME280;5382;42.136;24.796;2022-07-06T06:21:55;99676.50;;;25.22;100.00
10668;BME280;5382;42.136;24.796;2022-07-06T06:24:23;99679.81;;;25.38;100.00
10668;BME280;5382;42.136;24.796;2022-07-06T06:26:50;99677.06;;;25.44;100.00
10668;BME280;5382;42.136;24.796;2022-07-06T06:29:17;99681.44;;;25.52;100.00
10668;BME280;5382;42.136;24.796;2022-07-06T06:31:44;99680.16;;;25.61;100.00
10668;BME280;5382;42.136;24.796;2022-07-06T06:34:11;99666.56;;;25.68;100.00
10668;BME280;5382;42.136;24.796;2022-07-06T06:36:38;99671.16;;;25.74;100.00
10668;BME280;5382;42.136;24.796;2022-07-06T06:39:06;99682.41;;;25.71;100.00
10668;BME280;5382;42.136;24.796;2022-07-06T06:41:33;99669.09;;;25.63;99.62
10668;BME280;5382;42.136;24.796;2022-07-06T06:44:00;99666.13;;;25.84;100.00
10668;BME280;5382;42.136;24.796;2022-07-06T06:46:27;99691.31;;;25.92;96.92
10668;BME280;5382;42.136;24.796;2022-07-06T06:48:53;99675.91;;;25.92;96.43
10668;BME280;5382;42.136;24.796;2022-07-06T06:51:21;99672.50;;;25.97;96.29
10668;BME280;5382;42.136;24.796;2022-07-06T06:53:47;99675.44;;;26.33;95.49
10668;BME280;5382;42.136;24.796;2022-07-06T06:56:16;99673.47;;;26.54;93.07
10668;BME280;5382;42.136;24.796;2022-07-06T06:58:43;99675.09;;;26.62;91.76
10668;BME280;5382;42.136;24.796;2022-07-06T07:01:09;99674.66;;;26.58;91.69
10668;BME280;5382;42.136;24.796;2022-07-06T07:03:36;99678.22;;;26.59;90.41
10668;BME280;5382;42.136;24.796;2022-07-06T07:06:03;99674.91;;;26.57;90.40
10668;BME280;5382;42.136;24.796;2022-07-06T07:08:30;99667.44;;;26.45;92.03
10668;BME280;5382;42.136;24.796;2022-07-06T07:10:57;99673.28;;;26.74;90.92
10668;BME280;5382;42.136;24.796;2022-07-06T07:13:25;99673.13;;;26.94;90.67
10668;BME280;5382;42.136;24.796;2022-07-06T07:15:52;99667.19;;;27.04;86.87
10668;BME280;5382;42.136;24.796;2022-07-06T07:18:19;99671.34;;;27.06;86.71
10668;BME280;5382;42.136;24.796;2022-07-06T07:20:46;99672.22;;;27.00;86.56
10668;BME280;5382;42.136;24.796;2022-07-06T07:23:13;99648.66;;;26.75;87.66
10668;BME280;5382;42.136;24.796;2022-07-06T07:25:40;99661.00;;;26.71;87.41
10668;BME280;5382;42.136;24.796;2022-07-06T07:28:07;99659.44;;;26.82;88.87
10668;BME280;5382;42.136;24.796;2022-07-06T07:30:35;99656.25;;;26.67;87.87
10668;BME280;5382;42.136;24.796;2022-07-06T07:33:02;99663.50;;;26.98;86.62
10668;BME280;5382;42.136;24.796;2022-07-06T07:35:29;99659.38;;;26.89;86.71
10668;BME280;5382;42.136;24.796;2022-07-06T07:37:56;99666.09;;;26.86;86.24
10668;BME280;5382;42.136;24.796;2022-07-06T07:40:23;99652.47;;;26.93;83.76
10668;BME280;5382;42.136;24.796;2022-07-06T07:42:50;99652.38;;;27.00;82.46
10668;BME280;5382;42.136;24.796;2022-07-06T07:45:17;99644.91;;;27.20;81.82
10668;BME280;5382;42.136;24.796;2022-07-06T07:47:45;99654.03;;;27.44;80.60
10668;BME280;5382;42.136;24.796;2022-07-06T07:50:12;99665.97;;;27.43;81.29
10668;BME280;5382;42.136;24.796;2022-07-06T07:52:39;99678.06;;;27.47;79.84
10668;BME280;5382;42.136;24.796;2022-07-06T07:55:06;99650.59;;;27.37;80.85
10668;BME280;5382;42.136;24.796;2022-07-06T07:57:33;99670.28;;;27.51;80.67
10668;BME280;5382;42.136;24.796;2022-07-06T08:00:00;99677.19;;;27.28;80.17
10668;BME280;5382;42.136;24.796;2022-07-06T08:02:27;99664.16;;;27.18;81.60
10668;BME280;5382;42.136;24.796;2022-07-06T08:04:56;99655.72;;;27.27;82.02
10668;BME280;5382;42.136;24.796;2022-07-06T08:07:23;99664.47;;;27.29;82.47
10668;BME280;5382;42.136;24.796;2022-07-06T08:09:50;99672.22;;;27.44;81.82
10668;BME280;5382;42.136;24.796;2022-07-06T08:12:17;99669.81;;;27.35;81.66
10668;BME280;5382;42.136;24.796;2022-07-06T08:14:44;99667.03;;;27.24;82.60
10668;BME280;5382;42.136;24.796;2022-07-06T08:17:11;99646.50;;;27.03;83.90
10668;BME280;5382;42.136;24.796;2022-07-06T08:19:37;99673.44;;;27.29;82.55
10668;BME280;5382;42.136;24.796;2022-07-06T08:22:06;99672.06;;;27.38;81.06
10668;BME280;5382;42.136;24.796;2022-07-06T08:24:34;99654.66;;;27.28;82.91
10668;BME280;5382;42.136;24.796;2022-07-06T08:27:01;99672.00;;;27.45;81.30
10668;BME280;5382;42.136;24.796;2022-07-06T08:29:28;99661.97;;;27.64;80.58
10668;BME280;5382;42.136;24.796;2022-07-06T08:31:55;99649.22;;;27.83;81.23
10668;BME280;5382;42.136;24.796;2022-07-06T08:34:22;99638.63;;;27.93;80.67
10668;BME280;5382;42.136;24.796;2022-07-06T08:36:49;99642.47;;;28.16;78.82
10668;BME280;5382;42.136;24.796;2022-07-06T08:39:18;99652.44;;;28.22;77.64
10668;BME280;5382;42.136;24.796;2022-07-06T08:41:45;99647.69;;;28.17;76.09
10668;BME280;5382;42.136;24.796;2022-07-06T08:44:14;99646.53;;;28.25;76.79
10668;BME280;5382;42.136;24.796;2022-07-06T08:46:41;99648.91;;;28.33;75.61
10668;BME280;5382;42.136;24.796;2022-07-06T08:49:12;99640.47;;;28.65;75.54
10668;BME280;5382;42.136;24.796;2022-07-06T08:51:40;99617.88;;;28.53;72.73
10668;BME280;5382;42.136;24.796;2022-07-06T08:54:08;99645.47;;;29.03;72.16
10668;BME280;5382;42.136;24.796;2022-07-06T08:56:36;99649.59;;;28.70;71.86
10668;BME280;5382;42.136;24.796;2022-07-06T08:59:04;99639.75;;;28.58;73.59
10668;BME280;5382;42.136;24.796;2022-07-06T09:01:35;99623.78;;;28.61;73.50
10668;BME280;5382;42.136;24.796;2022-07-06T09:04:03;99648.31;;;28.85;71.29
10668;BME280;5382;42.136;24.796;2022-07-06T09:06:31;99651.63;;;28.87;72.47
10668;BME280;5382;42.136;24.796;2022-07-06T09:09:04;99649.38;;;28.84;73.21
10668;BME280;5382;42.136;24.796;2022-07-06T09:11:32;99657.88;;;28.76;72.64
10668;BME280;5382;42.136;24.796;2022-07-06T09:14:00;99652.81;;;28.79;73.10
10668;BME280;5382;42.136;24.796;2022-07-06T09:16:28;99631.81;;;28.68;72.88
10668;BME280;5382;42.136;24.796;2022-07-06T09:18:56;99657.41;;;28.67;74.84
10668;BME280;5382;42.136;24.796;2022-07-06T09:21:25;99667.31;;;28.49;75.04
10668;BME280;5382;42.136;24.796;2022-07-06T09:23:56;99661.19;;;28.54;76.75
10668;BME280;5382;42.136;24.796;2022-07-06T09:26:23;99654.78;;;28.60;74.52
10668;BME280;5382;42.136;24.796;2022-07-06T09:28:50;99657.50;;;28.60;76.23
10668;BME280;5382;42.136;24.796;2022-07-06T09:31:18;99660.09;;;28.55;76.91
10668;BME280;5382;42.136;24.796;2022-07-06T09:34:04;99649.66;;;28.40;78.82
10668;BME280;5382;42.136;24.796;2022-07-06T09:36:42;99660.53;;;28.40;79.99
10668;BME280;5382;42.136;24.796;2022-07-06T09:39:23;99652.09;;;28.30;80.32
10668;BME280;5382;42.136;24.796;2022-07-06T09:41:51;99659.53;;;28.23;81.35
10668;BME280;5382;42.136;24.796;2022-07-06T09:44:22;99650.06;;;28.25;79.69
10668;BME280;5382;42.136;24.796;2022-07-06T09:46:51;99661.66;;;28.51;80.61
10668;BME280;5382;42.136;24.796;2022-07-06T09:49:20;99655.31;;;28.39;79.31
10668;BME280;5382;42.136;24.796;2022-07-06T09:51:47;99645.53;;;28.49;77.58
10668;BME280;5382;42.136;24.796;2022-07-06T09:54:15;99638.44;;;28.48;76.62
10668;BME280;5382;42.136;24.796;2022-07-06T09:56:44;99641.41;;;28.59;76.57
10668;BME280;5382;42.136;24.796;2022-07-06T09:59:15;99634.69;;;28.73;74.61
10668;BME280;5382;42.136;24.796;2022-07-06T10:01:43;99628.53;;;28.78;74.52
10668;BME280;5382;42.136;24.796;2022-07-06T10:04:13;99631.88;;;28.91;74.77
10668;BME280;5382;42.136;24.796;2022-07-06T10:06:40;99632.31;;;29.12;73.92
10668;BME280;5382;42.136;24.796;2022-07-06T10:09:09;99628.56;;;29.13;72.57
10668;BME280;5382;42.136;24.796;2022-07-06T10:11:39;99611.84;;;28.98;73.18
10668;BME280;5382;42.136;24.796;2022-07-06T10:14:07;99622.97;;;29.20;73.50
10668;BME280;5382;42.136;24.796;2022-07-06T10:16:35;99621.75;;;29.27;71.81
10668;BME280;5382;42.136;24.796;2022-07-06T10:19:05;99626.13;;;29.40;70.46
10668;BME280;5382;42.136;24.796;2022-07-06T10:21:35;99624.56;;;29.56;67.14
10668;BME280;5382;42.136;24.796;2022-07-06T10:24:03;99612.41;;;29.75;67.12
10668;BME280;5382;42.136;24.796;2022-07-06T10:26:31;99609.44;;;30.06;66.14
10668;BME280;5382;42.136;24.796;2022-07-06T10:28:59;99586.88;;;30.10;62.86
10668;BME280;5382;42.136;24.796;2022-07-06T10:31:26;99607.84;;;30.38;60.34
10668;BME280;5382;42.136;24.796;2022-07-06T10:33:55;99602.78;;;30.64;61.21
10668;BME280;5382;42.136;24.796;2022-07-06T10:36:22;99610.44;;;30.62;59.65
10668;BME280;5382;42.136;24.796;2022-07-06T10:38:52;99600.16;;;30.86;58.14
10668;BME280;5382;42.136;24.796;2022-07-06T10:41:30;99599.75;;;31.16;55.87
10668;BME280;5382;42.136;24.796;2022-07-06T10:43:57;99596.28;;;31.92;55.68
10668;BME280;5382;42.136;24.796;2022-07-06T10:46:28;99597.47;;;31.74;52.12
10668;BME280;5382;42.136;24.796;2022-07-06T10:48:56;99587.78;;;31.88;50.31
10668;BME280;5382;42.136;24.796;2022-07-06T10:51:24;99583.03;;;32.06;50.05
10668;BME280;5382;42.136;24.796;2022-07-06T10:53:57;99586.16;;;31.92;50.71
10668;BME280;5382;42.136;24.796;2022-07-06T10:56:32;99580.28;;;32.06;49.21
10668;BME280;5382;42.136;24.796;2022-07-06T10:59:02;99584.84;;;32.22;49.81
10668;BME280;5382;42.136;24.796;2022-07-06T11:01:29;99586.47;;;32.23;50.51
10668;BME280;5382;42.136;24.796;2022-07-06T11:04:06;99588.06;;;32.19;46.40
10668;BME280;5382;42.136;24.796;2022-07-06T11:06:34;99577.88;;;32.42;46.45
10668;BME280;5382;42.136;24.796;2022-07-06T11:09:05;99578.19;;;32.83;45.98
10668;BME280;5382;42.136;24.796;2022-07-06T11:11:40;99569.34;;;33.18;43.47
10668;BME280;5382;42.136;24.796;2022-07-06T11:14:09;99579.69;;;33.69;42.08
10668;BME280;5382;42.136;24.796;2022-07-06T11:16:37;99576.38;;;33.56;42.31
10668;BME280;5382;42.136;24.796;2022-07-06T11:19:06;99556.53;;;33.34;41.86
10668;BME280;5382;42.136;24.796;2022-07-06T11:21:39;99561.56;;;33.57;41.29
10668;BME280;5382;42.136;24.796;2022-07-06T11:24:10;99553.84;;;33.49;42.07
10668;BME280;5382;42.136;24.796;2022-07-06T11:26:38;99553.09;;;33.74;43.19
10668;BME280;5382;42.136;24.796;2022-07-06T11:29:06;99519.31;;;33.69;43.21
10668;BME280;5382;42.136;24.796;2022-07-06T11:31:34;99549.59;;;34.25;41.53
10668;BME280;5382;42.136;24.796;2022-07-06T11:34:02;99546.19;;;34.94;40.90
10668;BME280;5382;42.136;24.796;2022-07-06T11:36:29;99550.84;;;35.09;39.86
10668;BME280;5382;42.136;24.796;2022-07-06T11:38:56;99538.56;;;34.71;38.15
10668;BME280;5382;42.136;24.796;2022-07-06T11:41:25;99522.63;;;33.86;39.36
10668;BME280;5382;42.136;24.796;2022-07-06T11:43:52;99544.00;;;34.91;38.74
10668;BME280;5382;42.136;24.796;2022-07-06T11:46:23;99548.78;;;35.35;37.21
10668;BME280;5382;42.136;24.796;2022-07-06T11:48:52;99540.97;;;36.02;36.98
10668;BME280;5382;42.136;24.796;2022-07-06T11:51:20;99539.72;;;35.85;36.44
10668;BME280;5382;42.136;24.796;2022-07-06T11:53:49;99530.97;;;35.72;37.63
10668;BME280;5382;42.136;24.796;2022-07-06T11:56:16;99521.22;;;35.46;40.50
10668;BME280;5382;42.136;24.796;2022-07-06T11:58:45;99519.34;;;35.36;38.81
10668;BME280;5382;42.136;24.796;2022-07-06T12:01:13;99523.94;;;35.51;36.66
10668;BME280;5382;42.136;24.796;2022-07-06T12:03:41;99513.91;;;35.26;37.41
10668;BME280;5382;42.136;24.796;2022-07-06T12:06:13;99500.31;;;34.80;38.12
10668;BME280;5382;42.136;24.796;2022-07-06T12:08:42;99477.34;;;34.19;39.66
10668;BME280;5382;42.136;24.796;2022-07-06T12:11:09;99468.81;;;34.36;37.25
10668;BME280;5382;42.136;24.796;2022-07-06T12:13:37;99510.53;;;34.48;36.42
10668;BME280;5382;42.136;24.796;2022-07-06T12:16:13;99514.13;;;34.59;36.62
10668;BME280;5382;42.136;24.796;2022-07-06T12:18:42;99494.88;;;34.49;37.07
10668;BME280;5382;42.136;24.796;2022-07-06T12:21:10;99508.94;;;34.37;37.50
10668;BME280;5382;42.136;24.796;2022-07-06T12:23:40;99510.03;;;34.31;36.28
10668;BME280;5382;42.136;24.796;2022-07-06T12:26:08;99506.44;;;34.25;36.64
10668;BME280;5382;42.136;24.796;2022-07-06T12:28:35;99516.03;;;34.48;37.44
10668;BME280;5382;42.136;24.796;2022-07-06T12:31:02;99507.78;;;34.48;37.72
10668;BME280;5382;42.136;24.796;2022-07-06T12:33:30;99505.44;;;35.07;35.16
10668;BME280;5382;42.136;24.796;2022-07-06T12:36:07;99504.69;;;35.51;34.24
10668;BME280;5382;42.136;24.796;2022-07-06T12:38:34;99489.69;;;35.72;34.27
10668;BME280;5382;42.136;24.796;2022-07-06T12:41:01;99489.13;;;36.39;32.46
10668;BME280;5382;42.136;24.796;2022-07-06T12:43:36;99483.41;;;36.83;33.13
10668;BME280;5382;42.136;24.796;2022-07-06T12:46:28;99485.06;;;37.27;31.35
10668;BME280;5382;42.136;24.796;2022-07-06T12:48:59;99492.28;;;37.04;32.11
10668;BME280;5382;42.136;24.796;2022-07-06T12:51:26;99478.78;;;36.79;33.04
10668;BME280;5382;42.136;24.796;2022-07-06T12:54:11;99468.13;;;36.72;31.50
10668;BME280;5382;42.136;24.796;2022-07-06T12:56:56;99478.09;;;36.68;31.64
10668;BME280;5382;42.136;24.796;2022-07-06T12:59:24;99475.44;;;37.06;32.25
10668;BME280;5382;42.136;24.796;2022-07-06T13:01:52;99464.94;;;37.08;32.53
10668;BME280;5382;42.136;24.796;2022-07-06T13:04:22;99463.78;;;36.90;32.27